createdAt,value
2022-08-24T00:31:03.887Z,0
2022-08-24T00:31:44.665Z,0
2022-08-24T00:32:25.189Z,0
2022-08-24T00:33:05.728Z,0
2022-08-24T00:37:08.674Z,0
2022-08-24T00:37:49.052Z,0
2022-08-24T00:38:29.730Z,0
2022-08-24T00:39:09.987Z,0
2022-08-24T00:39:50.542Z,0
2022-08-24T00:40:32.282Z,0
2022-08-24T00:43:45.492Z,0
2022-08-24T00:44:25.954Z,0
2022-08-24T00:45:06.444Z,0
2022-08-24T00:45:46.937Z,0
2022-08-24T00:53:27.570Z,0
2022-08-24T00:54:10.540Z,0
2022-08-24T00:54:51.865Z,0
2022-08-24T00:55:34.403Z,0
2022-08-24T00:56:14.897Z,0
2022-08-24T00:56:55.628Z,0
2022-08-24T00:57:37.567Z,0
2022-08-24T00:58:18.020Z,0
2022-08-24T00:58:58.597Z,0
2022-08-24T00:59:38.958Z,0
2022-08-24T01:00:19.858Z,0
2022-08-24T01:07:45.158Z,0
2022-08-24T01:08:25.643Z,0
2022-08-24T01:09:06.815Z,0
2022-08-24T01:09:46.625Z,0
2022-08-24T01:10:27.091Z,0
2022-08-24T01:11:07.615Z,0
2022-08-24T01:11:48.109Z,0
2022-08-24T01:12:28.627Z,0
2022-08-24T01:13:09.053Z,0
2022-08-24T01:13:49.636Z,0
2022-08-24T01:21:15.154Z,0
2022-08-24T01:21:55.674Z,0
2022-08-24T01:22:36.144Z,0
2022-08-24T01:23:16.646Z,0
2022-08-24T01:23:57.127Z,0
2022-08-24T01:24:37.652Z,0
2022-08-24T01:25:18.081Z,0
2022-08-24T01:25:58.564Z,0
2022-08-24T01:26:39.037Z,0
2022-08-24T01:27:19.988Z,0
2022-08-24T01:27:59.995Z,0
2022-08-24T01:35:25.276Z,0
2022-08-24T01:36:05.771Z,0
2022-08-24T01:38:18.677Z,0
2022-08-24T01:38:59.159Z,0
2022-08-24T01:39:39.608Z,0
2022-08-24T01:40:20.163Z,0
2022-08-24T01:41:00.545Z,0
2022-08-24T01:41:41.057Z,0
2022-08-24T01:42:21.554Z,0
2022-08-24T01:43:02.104Z,0
2022-08-24T01:43:42.549Z,0
2022-08-24T01:44:23.099Z,0
2022-08-24T01:45:03.556Z,0
2022-08-24T01:51:48.411Z,0
2022-08-24T01:52:38.989Z,0
2022-08-24T01:53:09.411Z,0
2022-08-24T01:53:49.903Z,0
2022-08-24T01:54:30.431Z,0
2022-08-24T01:55:10.922Z,0
2022-08-24T01:55:51.404Z,0
2022-08-24T01:56:31.899Z,0
2022-08-24T01:57:15.061Z,0
2022-08-24T01:57:52.809Z,0
2022-08-24T01:58:33.336Z,0
2022-08-24T02:05:58.876Z,0
2022-08-24T02:06:39.343Z,0
2022-08-24T02:07:19.882Z,0
2022-08-24T02:08:00.359Z,0
2022-08-24T02:08:40.862Z,0
2022-08-24T02:09:21.372Z,0
2022-08-24T02:10:42.324Z,0
2022-08-24T02:11:22.820Z,0
2022-08-24T02:12:03.302Z,0
2022-08-24T02:19:28.664Z,0
2022-08-24T02:20:09.109Z,0
2022-08-24T02:20:49.698Z,0
2022-08-24T02:21:30.103Z,0
2022-08-24T02:22:10.659Z,0
2022-08-24T02:22:51.225Z,0
2022-08-24T02:23:31.717Z,0
2022-08-24T02:24:12.241Z,0
2022-08-24T02:24:52.696Z,0
2022-08-24T02:25:33.236Z,0
2022-08-24T02:28:46.925Z,0
2022-08-24T02:29:27.523Z,0
2022-08-24T02:30:07.951Z,0
2022-08-24T02:30:48.465Z,0
2022-08-24T02:31:28.977Z,0
2022-08-24T02:32:09.502Z,0
2022-08-24T02:32:49.944Z,0
2022-08-24T02:33:30.448Z,0
2022-08-24T02:34:10.941Z,0
2022-08-24T02:34:51.512Z,0
2022-08-24T02:35:31.935Z,0
2022-08-24T02:42:17.039Z,0
2022-08-24T02:42:57.536Z,0
2022-08-24T02:43:38.519Z,0
2022-08-24T02:44:18.464Z,0
2022-08-24T02:45:39.416Z,0
2022-08-24T02:46:19.995Z,0
2022-08-24T02:47:00.373Z,0
2022-08-24T02:47:40.839Z,0
2022-08-24T02:48:21.377Z,0
2022-08-24T02:49:10.127Z,0
2022-08-24T02:54:26.645Z,0
2022-08-24T02:55:07.069Z,0
2022-08-24T02:55:47.595Z,0
2022-08-24T02:56:28.085Z,0
2022-08-24T02:57:08.531Z,0
2022-08-24T02:57:49.006Z,0
2022-08-24T02:58:29.594Z,0
2022-08-24T02:59:10.015Z,0
2022-08-24T02:59:50.523Z,0
2022-08-24T03:00:30.970Z,0
2022-08-24T03:01:13.578Z,0
2022-08-24T03:01:51.999Z,0
2022-08-24T03:08:36.954Z,0
2022-08-24T03:09:17.419Z,0
2022-08-24T03:09:57.964Z,0
2022-08-24T03:10:38.465Z,0
2022-08-24T03:11:18.972Z,0
2022-08-24T03:11:59.478Z,0
2022-08-24T03:13:20.473Z,0
2022-08-24T03:14:00.944Z,0
2022-08-24T03:14:41.409Z,0
2022-08-24T03:22:06.856Z,0
2022-08-24T03:22:47.335Z,0
2022-08-24T03:23:27.865Z,0
2022-08-24T03:24:08.321Z,0
2022-08-24T03:24:48.757Z,0
2022-08-24T03:25:29.304Z,0
2022-08-24T03:26:09.801Z,0
2022-08-24T03:26:50.262Z,0
2022-08-24T03:27:30.791Z,0
2022-08-24T03:28:11.312Z,0
2022-08-24T03:28:51.925Z,0
2022-08-24T03:35:36.651Z,0
2022-08-24T03:36:17.075Z,0
2022-08-24T03:36:57.648Z,0
2022-08-24T03:37:38.122Z,0
2022-08-24T03:38:18.636Z,0
2022-08-24T03:38:59.074Z,0
2022-08-24T03:39:39.574Z,0
2022-08-24T03:40:22.156Z,0
2022-08-24T03:41:00.648Z,0
2022-08-24T03:41:41.155Z,0
2022-08-24T03:42:21.659Z,0
2022-08-24T03:49:06.750Z,0
2022-08-24T03:49:47.253Z,0
2022-08-24T03:50:27.770Z,0
2022-08-24T03:51:08.232Z,0
2022-08-24T03:51:48.667Z,0
2022-08-24T03:52:32.175Z,0
2022-08-24T03:53:09.722Z,0
2022-08-24T03:53:50.246Z,0
2022-08-24T03:54:30.756Z,0
2022-08-24T03:55:11.259Z,0
2022-08-24T03:55:51.745Z,0
2022-08-24T04:02:37.352Z,0
2022-08-24T04:03:17.835Z,0
2022-08-24T04:03:58.347Z,4
2022-08-24T04:04:38.876Z,0
2022-08-24T04:05:19.328Z,0
2022-08-24T04:06:00.834Z,4
2022-08-24T04:06:41.295Z,0
2022-08-24T04:07:21.753Z,4
2022-08-24T04:14:06.747Z,8
2022-08-24T04:14:47.232Z,8
2022-08-24T04:15:27.868Z,12
2022-08-24T04:16:08.386Z,16
2022-08-24T04:16:53.508Z,16
2022-08-24T04:17:29.360Z,16
2022-08-24T04:18:09.906Z,20
2022-08-24T04:18:50.378Z,16
2022-08-24T04:19:30.870Z,20
2022-08-24T04:20:11.429Z,24
2022-08-24T04:26:16.900Z,44
2022-08-24T04:26:57.391Z,48
2022-08-24T04:27:37.926Z,52
2022-08-24T04:28:18.400Z,56
2022-08-24T04:28:58.943Z,60
2022-08-24T04:29:39.453Z,64
2022-08-24T04:30:19.937Z,64
2022-08-24T04:31:00.434Z,68
2022-08-24T04:31:40.983Z,72
2022-08-24T04:32:21.405Z,76
2022-08-24T04:38:26.896Z,124
2022-08-24T04:39:07.351Z,132
2022-08-24T04:39:47.891Z,136
2022-08-24T04:41:08.816Z,152
2022-08-24T04:41:50.355Z,160
2022-08-24T04:42:29.787Z,164
2022-08-24T04:43:10.353Z,172
2022-08-24T04:43:50.802Z,184
2022-08-24T04:44:31.329Z,192
2022-08-24T04:45:11.739Z,200
2022-08-24T04:51:56.906Z,320
2022-08-24T04:52:37.391Z,336
2022-08-24T04:53:17.885Z,352
2022-08-24T04:53:58.403Z,368
2022-08-24T04:54:38.877Z,384
2022-08-24T04:55:21.102Z,400
2022-08-24T04:56:01.606Z,420
2022-08-24T05:02:06.944Z,824
2022-08-24T05:02:47.386Z,928
2022-08-24T05:03:27.942Z,1052
2022-08-24T05:04:08.458Z,1212
2022-08-24T05:04:48.916Z,1408
2022-08-24T05:06:09.953Z,1724
2022-08-24T05:06:53.142Z,1792
2022-08-24T05:07:30.991Z,1904
2022-08-24T05:08:11.515Z,2004
2022-08-24T05:08:52.010Z,2108
2022-08-24T05:14:16.844Z,3072
2022-08-24T05:14:57.435Z,3280
2022-08-24T05:15:38.909Z,3428
2022-08-24T05:16:19.383Z,3600
2022-08-24T05:16:59.855Z,3716
2022-08-24T05:17:40.378Z,3800
2022-08-24T05:18:20.928Z,3880
2022-08-24T05:19:01.553Z,4088
2022-08-24T05:25:46.795Z,6688
2022-08-24T05:26:27.947Z,7124
2022-08-24T05:27:08.409Z,7368
2022-08-24T05:27:48.911Z,7676
2022-08-24T05:28:30.019Z,7708
2022-08-24T05:29:11.492Z,7908
2022-08-24T05:29:51.978Z,8160
2022-08-24T05:35:17.136Z,9832
2022-08-24T05:35:57.731Z,10072
2022-08-24T05:36:38.226Z,10532
2022-08-24T05:37:18.870Z,10512
2022-08-24T05:37:59.388Z,10792
2022-08-24T05:38:39.906Z,10804
2022-08-24T05:39:20.370Z,11068
2022-08-24T05:40:00.918Z,11424
2022-08-24T05:40:41.360Z,11840
2022-08-24T05:41:21.855Z,11904
2022-08-24T05:48:06.868Z,13792
2022-08-24T05:48:50.024Z,14400
2022-08-24T05:49:28.685Z,14592
2022-08-24T06:31:41.796Z,27424
2022-08-24T06:32:21.835Z,25824
2022-08-24T06:33:02.500Z,24224
2022-08-24T06:33:42.846Z,23072
2022-08-24T06:34:23.636Z,22368
2022-08-24T06:35:04.106Z,21408
2022-08-24T06:35:46.937Z,21184
2022-08-24T06:36:26.082Z,20672
2022-08-24T06:41:51.090Z,17536
2022-08-24T06:42:31.593Z,17280
2022-08-24T06:43:13.001Z,17184
2022-08-24T06:43:53.167Z,16960
2022-08-24T06:44:33.819Z,16736
2022-08-24T06:45:15.740Z,16736
2022-08-24T06:50:01.085Z,16576
2022-08-24T06:50:41.520Z,16864
2022-08-24T06:51:22.003Z,17312
2022-08-24T06:52:02.485Z,17504
2022-08-24T06:52:43.005Z,17280
2022-08-24T06:53:23.537Z,16928
2022-08-24T06:54:04.025Z,16480
2022-08-24T06:54:44.555Z,16544
2022-08-24T06:55:25.150Z,16384
2022-08-24T06:56:05.679Z,16384
2022-08-24T06:56:46.236Z,16384
2022-08-24T07:02:51.431Z,13588
2022-08-24T07:03:32.002Z,12996
2022-08-24T07:04:12.495Z,12740
2022-08-24T07:04:53.220Z,12492
2022-08-24T07:05:33.826Z,11988
2022-08-24T07:06:14.353Z,11436
2022-08-24T07:06:54.899Z,11300
2022-08-24T07:07:35.426Z,11328
2022-08-24T07:08:16.065Z,11300
2022-08-24T07:15:01.287Z,10804
2022-08-24T07:15:41.931Z,10236
2022-08-24T07:16:22.558Z,9652
2022-08-24T07:17:03.023Z,9408
2022-08-24T07:17:43.676Z,9320
2022-08-24T07:18:24.249Z,9184
2022-08-24T07:19:04.772Z,8788
2022-08-24T07:20:25.897Z,8180
2022-08-24T07:27:11.269Z,5220
2022-08-24T07:27:51.801Z,5164
2022-08-24T07:28:32.413Z,5064
2022-08-24T07:29:30.548Z,4944
2022-08-24T07:30:10.155Z,4848
2022-08-24T07:30:34.065Z,4800
2022-08-24T07:31:14.573Z,4720
2022-08-24T07:31:55.052Z,4628
2022-08-24T07:33:16.060Z,4472
2022-08-24T07:39:17.207Z,3416
2022-08-24T07:39:57.680Z,3364
2022-08-24T07:40:56.032Z,3304
2022-08-24T07:41:43.273Z,3244
2022-08-24T07:42:12.580Z,3196
2022-08-24T07:42:40.084Z,3148
2022-08-24T07:43:20.655Z,3100
2022-08-24T07:44:01.273Z,3048
2022-08-24T07:44:41.873Z,2992
2022-08-24T07:50:07.210Z,2620
2022-08-24T07:50:47.758Z,2580
2022-08-24T07:51:28.568Z,2544
2022-08-24T07:52:09.307Z,2508
2022-08-24T07:54:22.937Z,2400
2022-08-24T07:55:03.531Z,2356
2022-08-24T07:55:45.968Z,2316
2022-08-24T07:56:24.649Z,2292
2022-08-24T07:57:05.219Z,2264
2022-08-24T07:57:45.711Z,2240
2022-08-24T07:58:26.339Z,2216
2022-08-24T07:59:11.006Z,2192
2022-08-24T07:59:47.543Z,2176
2022-08-24T08:03:52.281Z,2072
2022-08-24T08:04:33.209Z,2060
2022-08-24T08:05:13.714Z,2056
2022-08-24T08:05:54.269Z,2044
2022-08-24T08:06:34.878Z,2036
2022-08-24T08:07:15.346Z,2028
2022-08-24T08:07:56.530Z,2020
2022-08-24T08:08:37.160Z,2012
2022-08-24T08:13:22.818Z,1956
2022-08-24T08:16:38.017Z,1908
2022-08-24T08:17:18.703Z,1900
2022-08-24T08:18:00.591Z,1888
2022-08-24T08:18:41.822Z,1876
2022-08-24T08:21:21.359Z,1844
2022-08-24T08:22:02.690Z,1832
2022-08-24T08:22:43.819Z,1828
2022-08-24T08:23:24.999Z,1820
2022-08-24T08:30:58.002Z,1760
2022-08-24T08:31:38.342Z,1756
2022-08-24T08:32:18.878Z,1752
2022-08-24T08:32:59.381Z,1744
2022-08-24T08:33:39.839Z,1744
2022-08-24T08:34:20.336Z,1732
2022-08-24T08:35:02.049Z,1728
2022-08-24T08:35:41.521Z,1724
2022-08-24T08:36:22.048Z,1720
2022-08-24T08:41:07.415Z,1684
2022-08-24T08:41:47.975Z,1676
2022-08-24T08:42:28.511Z,1672
2022-08-24T08:43:09.089Z,1668
2022-08-24T08:43:49.612Z,1660
2022-08-24T08:44:30.122Z,1660
2022-08-24T08:45:10.668Z,1656
2022-08-24T08:47:25.565Z,1640
2022-08-24T08:49:24.431Z,1632
2022-08-24T08:50:04.446Z,1628
2022-08-24T08:50:45.090Z,1628
2022-08-24T08:51:25.568Z,1624
2022-08-24T08:52:06.301Z,1620
2022-08-24T08:52:47.058Z,1616
2022-08-24T08:53:27.601Z,1620
2022-08-24T08:54:08.180Z,1620
2022-08-24T08:54:48.996Z,1620
2022-08-24T08:57:35.105Z,1628
2022-08-24T08:58:15.610Z,1628
2022-08-24T08:58:57.376Z,1624
2022-08-24T08:59:36.774Z,1628
2022-08-24T09:00:17.371Z,1628
2022-08-24T09:02:33.846Z,1612
2022-08-24T09:03:14.620Z,1608
2022-08-24T09:05:08.719Z,1600
2022-08-24T09:05:48.953Z,1596
2022-08-24T09:06:29.413Z,1592
2022-08-24T09:07:10.246Z,1592
2022-08-24T09:07:50.641Z,1588
2022-08-24T09:08:32.260Z,1588
2022-08-24T09:09:12.725Z,1584
2022-08-24T09:14:38.148Z,1568
2022-08-24T09:15:18.723Z,1564
2022-08-24T09:16:00.850Z,1568
2022-08-24T09:19:13.447Z,1560
2022-08-24T09:19:53.955Z,1552
2022-08-24T09:20:34.484Z,1552
2022-08-24T09:21:15.027Z,1548
2022-08-24T09:21:55.629Z,1544
2022-08-24T09:22:36.145Z,1540
2022-08-24T09:23:16.673Z,1532
2022-08-24T09:25:34.842Z,1516
2022-08-24T09:26:18.954Z,1512
2022-08-24T09:26:56.044Z,1508
2022-08-24T09:27:37.580Z,1508
2022-08-24T09:28:18.074Z,1500
2022-08-24T09:28:58.667Z,1500
2022-08-24T09:29:41.379Z,1496
2022-08-24T09:35:36.279Z,1492
2022-08-24T09:36:16.731Z,1488
2022-08-24T09:36:58.439Z,1484
2022-08-24T09:37:42.967Z,1480
2022-08-24T09:38:19.608Z,1472
2022-08-24T09:39:01.172Z,1468
2022-08-24T09:43:07.255Z,1444
2022-08-24T09:43:47.799Z,1444
2022-08-24T09:44:28.363Z,1436
2022-08-24T09:45:08.970Z,1436
2022-08-24T09:45:51.333Z,1440
2022-08-24T09:46:29.992Z,1436
2022-08-24T09:47:10.545Z,1436
2022-08-24T09:53:55.862Z,1408
2022-08-24T09:54:36.339Z,1416
2022-08-24T09:55:16.846Z,1416
2022-08-24T09:55:57.391Z,1412
2022-08-24T09:56:37.966Z,1412
2022-08-24T09:57:20.051Z,1404
2022-08-24T09:58:01.404Z,1400
2022-08-24T09:58:39.787Z,1400
2022-08-24T10:05:25.724Z,1372
2022-08-24T10:06:06.373Z,1376
2022-08-24T10:06:46.826Z,1368
2022-08-24T10:07:27.600Z,1368
2022-08-24T10:08:08.191Z,1368
2022-08-24T10:08:48.723Z,1364
2022-08-24T10:09:29.370Z,1360
2022-08-24T10:10:10.883Z,1356
2022-08-24T10:15:35.452Z,1316
2022-08-24T10:16:16.143Z,1308
2022-08-24T10:16:56.674Z,1312
2022-08-24T10:17:37.113Z,1324
2022-08-24T10:18:17.770Z,1328
2022-08-24T10:18:58.324Z,1324
2022-08-24T10:19:38.843Z,1324
2022-08-24T10:20:19.463Z,1320
2022-08-24T10:21:01.975Z,1316
2022-08-24T10:25:45.926Z,1308
2022-08-24T10:26:26.465Z,1312
2022-08-24T10:27:06.991Z,1316
2022-08-24T10:27:47.597Z,1320
2022-08-24T10:28:28.128Z,1320
2022-08-24T10:29:08.708Z,1320
2022-08-24T10:29:49.229Z,1320
2022-08-24T10:31:12.835Z,1316
2022-08-24T10:37:56.090Z,1300
2022-08-24T10:38:36.621Z,1300
2022-08-24T10:39:17.154Z,1300
2022-08-24T10:40:01.931Z,1296
2022-08-24T10:40:38.531Z,1300
2022-08-24T10:41:19.805Z,1296
2022-08-24T10:42:00.293Z,1296
2022-08-24T10:49:47.135Z,1296
2022-08-24T10:50:30.870Z,1292
2022-08-24T10:51:09.383Z,1296
2022-08-24T10:51:52.093Z,1296
2022-08-24T10:52:31.898Z,1300
2022-08-24T10:53:13.023Z,1300
2022-08-24T10:55:18.493Z,1300
2022-08-24T10:55:59.742Z,1296
2022-08-24T10:56:40.838Z,1296
2022-08-24T10:57:22.000Z,1292
2022-08-24T10:58:04.987Z,1288
2022-08-24T11:00:08.181Z,1276
2022-08-24T11:00:49.487Z,1272
2022-08-24T11:01:31.561Z,1268
2022-08-24T11:02:13.283Z,1264
2022-08-24T11:04:57.628Z,1248
2022-08-24T11:05:39.169Z,1244
2022-08-24T11:06:20.415Z,1240
2022-08-24T11:07:02.067Z,1240
2022-08-24T11:07:43.158Z,1244
2022-08-24T11:09:48.402Z,1232
2022-08-24T11:10:29.341Z,1228
2022-08-24T11:11:51.883Z,1220
2022-08-24T11:12:32.953Z,1216
2022-08-24T11:15:17.609Z,1208
2022-08-24T11:15:58.632Z,1204
2022-08-24T11:16:39.704Z,1200
2022-08-24T11:19:56.559Z,1192
2022-08-24T11:20:36.799Z,1192
2022-08-24T11:21:17.776Z,1188
2022-08-24T11:21:58.910Z,1192
2022-08-24T11:26:33.359Z,1184
2022-08-24T11:27:14.331Z,1184
2022-08-24T11:27:54.769Z,1176
2022-08-24T11:28:36.471Z,1176
2022-08-24T11:30:39.111Z,1156
2022-08-24T11:31:19.708Z,1136
2022-08-24T11:32:00.227Z,1132
2022-08-24T11:32:40.681Z,1116
2022-08-24T11:33:21.376Z,1120
2022-08-24T11:34:01.965Z,1112
2022-08-24T11:34:42.425Z,1108
2022-08-24T11:35:22.892Z,1116
2022-08-24T11:36:03.638Z,1120
2022-08-24T11:40:09.203Z,1132
2022-08-24T11:40:56.466Z,1132
2022-08-24T11:43:03.664Z,1132
2022-08-24T11:43:40.739Z,1128
2022-08-24T11:44:21.264Z,1132
2022-08-24T11:45:01.849Z,1128
2022-08-24T11:50:26.872Z,1112
2022-08-24T11:51:08.939Z,1120
2022-08-24T11:51:52.528Z,1120
2022-08-24T11:52:33.244Z,1120
2022-08-24T12:32:50.027Z,1132
2022-08-24T12:33:31.756Z,1136
2022-08-24T12:34:13.965Z,1132
2022-08-24T12:34:58.043Z,1128
2022-08-24T12:38:36.808Z,1128
2022-08-24T12:39:17.048Z,1120
2022-08-24T12:39:57.766Z,1116
2022-08-24T12:40:38.175Z,1116
2022-08-24T12:41:18.943Z,1016
2022-08-24T12:43:34.368Z,1128
2022-08-24T12:44:15.018Z,1128
2022-08-24T12:44:56.675Z,1124
2022-08-24T12:45:37.232Z,1120
2022-08-24T12:46:17.769Z,1120
2022-08-24T12:46:59.114Z,1116
2022-08-24T12:53:58.051Z,1108
2022-08-24T12:57:02.319Z,1132
2022-08-24T12:57:51.694Z,1132
2022-08-24T12:58:40.528Z,1140
2022-08-24T12:59:02.432Z,1144
2022-08-24T12:59:42.531Z,1144
2022-08-24T13:00:23.386Z,1148
2022-08-24T13:01:05.977Z,1144
2022-08-24T13:05:08.977Z,1160
2022-08-24T13:05:49.471Z,1152
2022-08-24T13:06:30.007Z,1164
2022-08-24T13:07:11.203Z,1168
2022-08-24T13:07:51.835Z,1168
2022-08-24T13:08:32.462Z,1172
2022-08-24T13:09:12.909Z,1172
2022-08-24T13:22:50.738Z,1156
2022-08-24T13:23:31.233Z,1156
2022-08-24T13:24:12.572Z,1148
2022-08-24T13:24:52.650Z,1148
2022-08-24T13:25:34.091Z,1148
2022-08-24T13:26:14.611Z,1144
2022-08-24T13:26:55.118Z,1144
2022-08-24T13:27:35.755Z,1144
2022-08-24T13:33:40.863Z,1140
2022-08-24T13:34:21.478Z,1136
2022-08-24T13:35:02.143Z,1136
2022-08-24T13:35:42.769Z,1144
2022-08-24T13:38:57.340Z,1152
2022-08-24T13:39:38.553Z,1180
2022-08-24T13:40:18.712Z,1212
2022-08-24T13:40:59.030Z,1244
2022-08-24T13:41:39.581Z,1260
2022-08-24T13:42:20.186Z,1256
2022-08-24T13:43:00.825Z,1268
2022-08-24T13:43:41.666Z,1292
2022-08-24T13:49:46.568Z,1508
2022-08-24T13:50:26.826Z,1536
2022-08-24T13:51:07.429Z,1572
2022-08-24T13:51:47.924Z,1608
2022-08-24T13:52:28.413Z,1636
2022-08-24T13:53:09.623Z,1652
2022-08-24T13:53:50.109Z,1668
2022-08-24T13:54:30.654Z,1676
2022-08-24T13:55:11.415Z,1672
2022-08-24T14:00:43.571Z,1412
2022-08-24T14:01:25.318Z,1368
2022-08-24T14:02:06.648Z,1320
2022-08-24T14:02:46.730Z,1284
2022-08-24T14:06:06.269Z,1212
2022-08-24T14:06:47.057Z,1216
2022-08-24T14:07:27.523Z,1220
2022-08-24T14:08:07.709Z,1232
2022-08-24T14:10:12.758Z,1228
2022-08-24T14:10:53.778Z,1212
2022-08-24T14:11:33.913Z,1188
2022-08-24T14:12:14.646Z,1188
2022-08-24T14:12:57.150Z,1184
2022-08-24T14:13:37.934Z,1160
2022-08-24T14:15:43.337Z,1152
2022-08-24T14:16:23.639Z,1144
2022-08-24T14:17:04.670Z,1136
2022-08-24T14:17:46.688Z,1132
2022-08-24T14:18:27.213Z,1132
2022-08-24T14:21:52.940Z,1108
2022-08-24T14:22:32.848Z,1108
2022-08-24T14:23:13.560Z,1104
2022-08-24T14:24:34.744Z,1112
2022-08-24T14:25:15.509Z,1068
2022-08-24T14:25:57.304Z,968
2022-08-24T14:26:37.833Z,952
2022-08-24T14:33:20.820Z,1052
2022-08-24T14:34:01.376Z,1048
2022-08-24T14:34:42.128Z,1056
2022-08-24T14:35:22.660Z,1056
2022-08-24T14:36:03.131Z,1064
2022-08-24T14:36:44.632Z,984
2022-08-24T14:40:23.806Z,1068
2022-08-24T14:41:04.573Z,1068
2022-08-24T14:41:45.498Z,1056
2022-08-24T14:42:25.912Z,1056
2022-08-24T14:43:06.579Z,1056
2022-08-24T14:43:47.160Z,1056
2022-08-24T14:44:27.696Z,1056
2022-08-24T14:45:08.353Z,1052
2022-08-24T14:45:48.850Z,1056
2022-08-24T14:50:10.623Z,1036
2022-08-24T14:50:47.433Z,1032
2022-08-24T14:51:28.337Z,1028
2022-08-24T14:52:08.830Z,1028
2022-08-24T14:52:51.358Z,1024
2022-08-24T14:54:57.828Z,1016
2022-08-24T14:55:39.075Z,1016
2022-08-24T14:56:22.001Z,1016
2022-08-24T14:56:59.890Z,1016
2022-08-24T14:57:47.408Z,1012
2022-08-24T15:01:21.834Z,1004
2022-08-24T15:02:02.462Z,1004
2022-08-24T15:02:42.778Z,1004
2022-08-24T15:03:23.390Z,1008
2022-08-24T15:04:03.924Z,1008
2022-08-24T15:04:44.567Z,1004
2022-08-24T15:07:59.528Z,1004
2022-08-24T15:08:40.363Z,1000
2022-08-24T15:09:20.785Z,1000
2022-08-24T15:10:01.304Z,992
2022-08-24T15:10:41.903Z,992
2022-08-24T15:11:22.324Z,1000
2022-08-24T15:12:02.939Z,992
2022-08-24T15:12:44.552Z,972
2022-08-24T15:18:49.767Z,972
2022-08-24T15:20:12.874Z,980
2022-08-24T15:20:53.988Z,980
2022-08-24T15:21:34.295Z,980
2022-08-24T15:27:39.195Z,980
2022-08-24T15:28:19.738Z,972
2022-08-24T15:29:00.315Z,976
2022-08-24T15:29:40.814Z,976
2022-08-24T15:30:21.279Z,976
2022-08-24T15:31:01.869Z,980
2022-08-24T15:31:42.382Z,976
2022-08-24T15:32:22.867Z,976
2022-08-24T15:33:03.391Z,980
2022-08-24T15:33:43.901Z,976
2022-08-24T15:34:24.423Z,976
2022-08-24T15:41:09.534Z,968
2022-08-24T15:41:50.134Z,964
2022-08-24T15:42:30.753Z,960
2022-08-24T15:43:11.297Z,964
2022-08-24T15:43:51.820Z,960
2022-08-24T15:44:33.172Z,956
2022-08-24T15:45:13.724Z,956
2022-08-24T15:45:54.219Z,952
2022-08-24T15:51:19.224Z,916
2022-08-24T15:51:59.802Z,912
2022-08-24T15:52:40.296Z,904
2022-08-24T15:53:20.872Z,900
2022-08-24T15:54:01.310Z,896
2022-08-24T15:54:41.879Z,900
2022-08-24T15:55:22.366Z,900
2022-08-24T15:56:03.156Z,888
2022-08-24T15:56:43.440Z,876
2022-08-24T15:57:24.089Z,876
2022-08-24T16:02:09.482Z,844
2022-08-24T16:02:50.011Z,840
2022-08-24T16:03:30.375Z,840
2022-08-24T16:04:11.024Z,836
2022-08-24T16:04:51.481Z,832
2022-08-24T16:05:31.969Z,828
2022-08-24T16:06:12.523Z,824
2022-08-24T16:06:53.058Z,824
2022-08-24T16:07:33.584Z,824
2022-08-24T16:08:14.135Z,816
2022-08-24T16:14:59.483Z,788
2022-08-24T16:18:13.745Z,776
2022-08-24T16:18:54.330Z,768
2022-08-24T16:19:34.883Z,768
2022-08-24T16:20:15.326Z,768
2022-08-24T16:20:55.916Z,776
2022-08-24T16:21:36.407Z,772
2022-08-24T16:22:16.844Z,772
2022-08-24T16:23:00.031Z,772
2022-08-24T16:23:37.872Z,756
2022-08-24T16:24:18.597Z,756
2022-08-24T16:30:23.476Z,736
2022-08-24T16:31:06.942Z,732
2022-08-24T16:31:44.454Z,732
2022-08-24T16:32:31.546Z,728
2022-08-24T16:33:06.117Z,724
2022-08-24T16:33:45.932Z,724
2022-08-24T16:34:26.434Z,720
2022-08-24T16:35:06.999Z,720
2022-08-24T16:35:47.445Z,720
2022-08-24T16:36:27.963Z,716
2022-08-24T16:37:08.423Z,712
2022-08-24T16:42:33.678Z,692
2022-08-24T16:43:14.343Z,688
2022-08-24T16:43:54.958Z,684
2022-08-24T16:44:35.470Z,684
2022-08-24T16:48:11.789Z,668
2022-08-24T16:48:53.213Z,664
2022-08-24T16:49:33.838Z,664
2022-08-24T16:50:15.416Z,660
2022-08-24T16:55:40.399Z,636
2022-08-24T16:56:20.979Z,636
2022-08-24T16:57:01.664Z,632
2022-08-24T16:57:42.187Z,628
2022-08-24T16:58:22.679Z,624
2022-08-24T16:59:03.503Z,620
2022-08-24T16:59:43.861Z,616
2022-08-24T17:00:24.354Z,616
2022-08-24T17:02:45.021Z,604
2022-08-24T17:05:16.368Z,592
2022-08-24T17:05:57.292Z,592
2022-08-24T17:06:37.978Z,588
2022-08-24T17:07:18.914Z,584
2022-08-24T17:07:59.503Z,580
2022-08-24T17:08:40.233Z,580
2022-08-24T17:09:21.045Z,572
2022-08-24T17:14:06.039Z,548
2022-08-24T17:14:47.036Z,544
2022-08-24T17:15:27.406Z,544
2022-08-24T17:16:08.026Z,540
2022-08-24T17:16:48.563Z,536
2022-08-24T17:17:29.439Z,532
2022-08-24T17:18:09.973Z,528
2022-08-24T17:18:50.446Z,528
2022-08-24T17:19:30.942Z,520
2022-08-24T17:24:07.569Z,496
2022-08-24T17:24:48.128Z,492
2022-08-24T17:25:28.627Z,484
2022-08-24T17:26:09.469Z,484
2022-08-24T17:26:50.340Z,476
2022-08-24T17:27:30.873Z,476
2022-08-24T17:28:11.314Z,468
2022-08-24T17:28:52.618Z,468
2022-08-24T17:33:37.766Z,440
2022-08-24T17:34:18.637Z,436
2022-08-24T17:34:59.147Z,428
2022-08-24T17:35:39.779Z,424
2022-08-24T17:36:23.625Z,420
2022-08-24T17:43:33.604Z,376
2022-08-24T17:44:14.033Z,372
2022-08-24T17:44:55.562Z,364
2022-08-24T17:45:36.718Z,360
2022-08-24T17:46:17.205Z,356
2022-08-24T17:51:42.257Z,320
2022-08-24T17:52:22.801Z,312
2022-08-24T17:53:03.595Z,308
2022-08-24T18:35:01.075Z,32
2022-08-24T18:35:41.310Z,32
2022-08-24T18:36:21.789Z,28
2022-08-24T18:37:02.321Z,28
2022-08-24T18:37:42.808Z,28
2022-08-24T18:39:57.259Z,20
2022-08-24T18:40:38.089Z,20
2022-08-24T18:41:18.875Z,20
2022-08-24T18:41:59.187Z,16
2022-08-24T18:42:39.892Z,16
2022-08-24T18:43:21.223Z,12
2022-08-24T18:47:27.978Z,8
2022-08-24T18:48:08.473Z,8
2022-08-24T18:48:49.122Z,8
2022-08-24T18:49:29.629Z,8
2022-08-24T18:50:10.342Z,4
2022-08-24T18:50:52.132Z,4
2022-08-24T18:55:37.519Z,4
2022-08-24T18:56:25.682Z,4
2022-08-24T18:57:13.525Z,4
2022-08-24T18:59:53.464Z,0
2022-08-24T19:00:34.198Z,0
2022-08-24T19:01:14.708Z,0
2022-08-24T19:01:55.166Z,0
2022-08-24T19:02:35.532Z,0
2022-08-24T19:03:16.665Z,0
2022-08-24T19:03:57.140Z,0
2022-08-24T19:04:38.243Z,0
2022-08-24T19:05:18.465Z,0
2022-08-24T19:08:59.752Z,0
2022-08-24T19:09:40.978Z,0
2022-08-24T19:10:23.811Z,0
2022-08-24T19:11:04.754Z,0
2022-08-24T19:15:49.290Z,0
2022-08-24T19:16:29.828Z,0
2022-08-24T19:17:10.594Z,0
2022-08-24T19:17:51.144Z,0
2022-08-24T19:18:31.668Z,0
2022-08-24T19:19:12.113Z,0
2022-08-24T19:19:53.480Z,0
2022-08-24T19:20:34.118Z,0
2022-08-24T19:25:19.276Z,0
2022-08-24T19:25:59.948Z,0
2022-08-24T19:26:40.799Z,0
2022-08-24T19:27:21.091Z,0
2022-08-24T19:28:01.886Z,0
2022-08-24T19:28:42.445Z,0
2022-08-24T19:29:39.112Z,0
2022-08-24T19:30:03.333Z,0
2022-08-24T19:30:44.049Z,0
2022-08-24T19:36:09.439Z,0
2022-08-24T19:36:50.220Z,0
2022-08-24T19:37:31.372Z,0
2022-08-24T19:38:12.163Z,0
2022-08-24T19:38:52.717Z,0
2022-08-24T19:39:33.151Z,0
2022-08-24T19:40:13.923Z,0
2022-08-24T19:40:54.271Z,0
2022-08-24T19:47:56.170Z,0
2022-08-24T19:48:36.822Z,0
2022-08-24T19:49:17.434Z,0
2022-08-24T19:49:57.942Z,0
2022-08-24T19:50:38.570Z,0
2022-08-24T19:51:19.156Z,0
2022-08-24T19:51:59.635Z,0
2022-08-24T19:52:40.092Z,0
2022-08-24T19:53:20.604Z,0
2022-08-24T19:54:01.014Z,0
2022-08-24T19:58:46.390Z,0
2022-08-24T19:59:26.908Z,0
2022-08-24T20:00:07.540Z,0
2022-08-24T20:00:48.261Z,0
2022-08-24T20:01:28.667Z,0
2022-08-24T20:02:09.108Z,0
2022-08-24T20:02:49.624Z,0
2022-08-24T20:03:30.039Z,0
2022-08-24T20:04:11.387Z,0
2022-08-24T20:09:12.381Z,0
2022-08-24T20:09:52.697Z,0
2022-08-24T20:10:33.466Z,0
2022-08-24T20:11:13.989Z,0
2022-08-24T20:11:54.912Z,0
2022-08-24T20:12:36.434Z,0
2022-08-24T20:16:01.630Z,0
2022-08-24T20:16:43.678Z,0